createdAt,value
2023-04-09T00:01:33.897Z,4.93
2023-04-09T00:04:00.939Z,5.28
2023-04-09T00:06:27.678Z,5.88
2023-04-09T00:08:54.391Z,4.55
2023-04-09T00:11:21.650Z,5.50
2023-04-09T00:13:48.296Z,5.10
2023-04-09T00:16:14.917Z,4.70
2023-04-09T00:18:41.816Z,5.53
2023-04-09T00:21:08.897Z,5.60
2023-04-09T00:23:36.117Z,6.07
2023-04-09T00:26:02.747Z,6.60
2023-04-09T00:28:29.270Z,6.25
2023-04-09T00:30:55.971Z,5.35
2023-04-09T00:33:22.536Z,5.15
2023-04-09T00:35:49.103Z,5.68
2023-04-09T00:38:15.717Z,5.78
2023-04-09T00:40:42.341Z,5.82
2023-04-09T00:43:09.194Z,7.38
2023-04-09T00:45:36.584Z,6.40
2023-04-09T00:48:03.325Z,5.18
2023-04-09T00:50:29.899Z,6.75
2023-04-09T00:52:56.568Z,6.32
2023-04-09T00:55:23.669Z,6.50
2023-04-09T00:57:50.327Z,5.38
2023-04-09T01:00:16.973Z,6.30
2023-04-09T01:02:44.517Z,6.28
2023-04-09T01:05:12.754Z,5.82
2023-04-09T01:13:28.659Z,7.40
2023-04-09T01:15:57.580Z,6.25
2023-04-09T01:21:07.004Z,6.18
2023-04-09T01:26:59.962Z,6.70
2023-04-09T01:29:30.556Z,5.72
2023-04-09T01:31:58.586Z,6.40
2023-04-09T01:34:26.279Z,5.95
2023-04-09T01:36:57.134Z,6.00
2023-04-09T01:39:24.103Z,6.40
2023-04-09T01:41:51.509Z,8.20
2023-04-09T01:44:18.971Z,6.95
2023-04-09T01:46:48.308Z,6.68
2023-04-09T01:49:15.960Z,6.85
2023-04-09T01:51:43.363Z,7.35
2023-04-09T01:54:09.953Z,6.82
2023-04-09T01:56:45.011Z,7.40
2023-04-09T01:59:12.094Z,7.85
2023-04-09T02:01:45.772Z,7.30
2023-04-09T02:04:35.610Z,6.43
2023-04-09T02:09:36.527Z,6.90
2023-04-09T02:12:05.859Z,8.90
2023-04-09T02:14:33.636Z,7.40
2023-04-09T02:17:01.498Z,8.80
2023-04-09T02:19:45.854Z,9.05
2023-04-09T02:22:13.102Z,7.35
2023-04-09T02:24:40.640Z,7.63
2023-04-09T02:27:08.006Z,7.25
2023-04-09T02:29:34.609Z,8.75
2023-04-09T02:32:01.296Z,8.57
2023-04-09T02:34:28.213Z,8.48
2023-04-09T02:36:54.805Z,7.13
2023-04-09T02:39:21.354Z,9.27
2023-04-09T02:41:47.910Z,9.75
2023-04-09T02:44:14.501Z,8.95
2023-04-09T02:46:41.837Z,9.77
2023-04-09T02:49:08.466Z,7.88
2023-04-09T02:51:36.049Z,8.45
2023-04-09T02:54:03.183Z,10.70
2023-04-09T02:56:29.820Z,8.35
2023-04-09T02:58:56.400Z,9.93
2023-04-09T03:01:23.130Z,7.35
2023-04-09T03:03:49.992Z,7.63
2023-04-09T03:06:18.420Z,8.52
2023-04-09T03:08:45.624Z,9.13
2023-04-09T03:11:12.335Z,7.78
2023-04-09T03:13:38.879Z,8.85
2023-04-09T03:16:05.932Z,7.07
2023-04-09T03:18:32.540Z,7.15
2023-04-09T03:20:59.061Z,9.10
2023-04-09T03:23:25.687Z,8.02
2023-04-09T03:26:02.074Z,8.00
2023-04-09T03:28:28.794Z,6.07
2023-04-09T03:30:55.348Z,8.75
2023-04-09T03:33:21.882Z,9.68
2023-04-09T03:35:48.487Z,7.88
2023-04-09T03:38:15.082Z,9.80
2023-04-09T03:40:42.764Z,8.65
2023-04-09T03:43:09.351Z,8.77
2023-04-09T03:45:35.901Z,8.75
2023-04-09T03:48:02.523Z,7.78
2023-04-09T03:50:29.098Z,8.23
2023-04-09T03:52:55.855Z,8.52
2023-04-09T03:55:22.486Z,9.45
2023-04-09T03:57:49.096Z,9.95
2023-04-09T04:00:15.743Z,9.93
2023-04-09T04:02:42.519Z,11.15
2023-04-09T04:05:09.373Z,9.70
2023-04-09T04:07:37.048Z,7.90
2023-04-09T04:10:06.683Z,9.93
2023-04-09T04:12:33.246Z,9.77
2023-04-09T04:15:01.395Z,9.65
2023-04-09T04:17:27.997Z,9.35
2023-04-09T04:19:54.648Z,9.95
2023-04-09T04:22:21.250Z,9.93
2023-04-09T04:24:47.826Z,10.75
2023-04-09T04:27:14.323Z,11.55
2023-04-09T04:29:40.951Z,8.30
2023-04-09T04:32:07.527Z,11.23
2023-04-09T04:34:34.072Z,9.13
2023-04-09T04:37:00.693Z,9.57
2023-04-09T04:39:27.202Z,9.05
2023-04-09T04:41:53.719Z,10.10
2023-04-09T04:44:20.270Z,9.32
2023-04-09T04:46:46.789Z,10.18
2023-04-09T04:49:13.303Z,8.95
2023-04-09T04:51:39.843Z,8.60
2023-04-09T04:54:06.377Z,10.32
2023-04-09T04:56:32.904Z,9.90
2023-04-09T04:59:00.806Z,10.35
2023-04-09T05:01:27.503Z,8.43
2023-04-09T05:03:54.295Z,8.50
2023-04-09T05:06:20.899Z,9.30
2023-04-09T05:08:47.424Z,10.10
2023-04-09T05:11:15.255Z,8.20
2023-04-09T05:13:41.938Z,10.73
2023-04-09T05:16:08.553Z,8.80
2023-04-09T05:18:35.133Z,9.90
2023-04-09T05:21:01.752Z,9.30
2023-04-09T05:23:28.310Z,8.85
2023-04-09T05:25:54.894Z,7.80
2023-04-09T05:28:21.508Z,8.50
2023-04-09T05:30:48.302Z,7.20
2023-04-09T05:33:14.927Z,8.15
2023-04-09T05:35:41.550Z,7.05
2023-04-09T05:38:08.172Z,7.35
2023-04-09T05:40:35.523Z,7.95
2023-04-09T05:43:02.213Z,7.72
2023-04-09T05:45:28.822Z,7.78
2023-04-09T05:47:55.380Z,8.25
2023-04-09T05:50:22.139Z,7.40
2023-04-09T05:52:48.740Z,8.10
2023-04-09T05:55:15.471Z,7.05
2023-04-09T05:57:42.261Z,8.23
2023-04-09T06:00:09.701Z,7.38
2023-04-09T06:02:36.507Z,7.75
2023-04-09T06:05:03.276Z,7.95
2023-04-09T06:07:29.874Z,8.23
2023-04-09T06:09:56.668Z,8.43
2023-04-09T06:12:23.269Z,8.23
2023-04-09T06:14:49.855Z,9.00
2023-04-09T06:17:16.425Z,8.07
2023-04-09T06:19:43.770Z,8.65
2023-04-09T06:22:11.151Z,8.15
2023-04-09T06:24:37.679Z,8.27
2023-04-09T06:27:04.408Z,7.90
2023-04-09T06:29:31.202Z,7.85
2023-04-09T06:31:57.869Z,7.63
2023-04-09T06:34:24.524Z,7.97
2023-04-09T06:36:51.178Z,10.40
2023-04-09T06:39:17.710Z,8.73
2023-04-09T06:41:44.271Z,8.70
2023-04-09T06:44:10.793Z,9.23
2023-04-09T06:46:37.457Z,10.75
2023-04-09T06:49:04.009Z,9.45
2023-04-09T06:51:30.526Z,9.50
2023-04-09T06:53:57.140Z,8.85
2023-04-09T06:56:23.694Z,10.10
2023-04-09T06:58:50.247Z,9.73
2023-04-09T07:01:17.472Z,8.93
2023-04-09T07:03:44.738Z,9.93
2023-04-09T07:06:11.398Z,8.80
2023-04-09T07:08:37.920Z,6.97
2023-04-09T07:11:04.530Z,9.73
2023-04-09T07:13:31.388Z,10.77
2023-04-09T07:15:57.971Z,8.55
2023-04-09T07:18:24.629Z,8.93
2023-04-09T07:20:52.608Z,7.97
2023-04-09T07:23:19.446Z,9.45
2023-04-09T07:25:45.960Z,11.00
2023-04-09T07:28:12.636Z,10.23
2023-04-09T07:30:40.042Z,9.10
2023-04-09T07:33:06.763Z,8.63
2023-04-09T07:35:34.826Z,5.65
2023-04-09T07:38:01.429Z,7.53
2023-04-09T07:40:27.970Z,7.50
2023-04-09T07:42:55.746Z,7.57
2023-04-09T07:45:22.270Z,8.70
2023-04-09T07:47:48.833Z,6.28
2023-04-09T07:50:15.929Z,7.80
2023-04-09T07:52:42.775Z,7.75
2023-04-09T07:55:09.542Z,5.97
2023-04-09T07:57:36.948Z,7.90
2023-04-09T08:00:04.278Z,8.52
2023-04-09T08:02:31.234Z,7.82
2023-04-09T08:04:58.305Z,7.93
2023-04-09T08:07:25.061Z,7.15
2023-04-09T08:09:51.638Z,8.48
2023-04-09T08:12:18.361Z,7.68
2023-04-09T08:14:44.929Z,8.40
2023-04-09T08:17:11.568Z,5.88
2023-04-09T08:19:40.449Z,8.90
2023-04-09T08:24:35.471Z,8.95
2023-04-09T08:27:02.098Z,10.63
2023-04-09T08:29:29.325Z,8.35
2023-04-09T08:31:56.295Z,8.38
2023-04-09T08:34:23.073Z,7.55
2023-04-09T08:36:50.195Z,8.30
2023-04-09T08:39:20.178Z,9.60
2023-04-09T08:41:48.519Z,7.80
2023-04-09T08:44:15.190Z,9.65
2023-04-09T08:46:42.042Z,9.77
2023-04-09T08:49:10.347Z,8.82
2023-04-09T08:51:37.014Z,8.27
2023-04-09T08:54:04.756Z,11.63
2023-04-09T08:56:32.189Z,7.80
2023-04-09T08:58:58.922Z,8.77
2023-04-09T09:01:28.942Z,8.88
2023-04-09T09:06:41.132Z,10.48
2023-04-09T09:09:11.011Z,11.30
2023-04-09T09:11:39.660Z,10.00
2023-04-09T09:14:08.136Z,10.65
2023-04-09T09:16:36.484Z,9.75
2023-04-09T09:19:03.489Z,9.27
2023-04-09T09:21:30.249Z,9.40
2023-04-09T09:23:57.283Z,10.00
2023-04-09T09:26:26.533Z,6.63
2023-04-09T09:28:53.867Z,7.90
2023-04-09T09:31:22.233Z,8.32
2023-04-09T09:33:50.519Z,10.98
2023-04-09T09:36:31.818Z,11.45
2023-04-09T09:39:02.206Z,9.93
2023-04-09T09:41:29.111Z,9.98
2023-04-09T09:43:55.890Z,9.35
2023-04-09T09:46:22.870Z,10.63
2023-04-09T09:48:49.865Z,9.73
2023-04-09T09:51:17.188Z,11.57
2023-04-09T09:53:46.584Z,9.73
2023-04-09T09:56:17.091Z,8.20
2023-04-09T10:01:26.619Z,8.73
2023-04-09T10:03:54.120Z,8.25
2023-04-09T10:06:21.574Z,8.73
2023-04-09T10:08:49.946Z,8.05
2023-04-09T10:11:17.453Z,6.03
2023-04-09T10:13:51.167Z,8.32
2023-04-09T10:16:18.848Z,7.93
2023-04-09T10:18:45.537Z,7.95
2023-04-09T10:21:25.482Z,7.03
2023-04-09T10:23:52.492Z,9.98
2023-04-09T10:26:19.909Z,9.32
2023-04-09T10:28:46.501Z,7.85
2023-04-09T10:31:14.160Z,7.53
2023-04-09T10:33:43.596Z,7.55
2023-04-09T10:36:12.807Z,8.40
2023-04-09T10:38:41.541Z,8.27
2023-04-09T10:41:16.302Z,6.55
2023-04-09T10:43:43.567Z,8.70
2023-04-09T10:46:31.206Z,7.88
2023-04-09T10:51:54.016Z,5.47
2023-04-09T10:54:44.054Z,7.13
2023-04-09T10:57:21.123Z,9.20
2023-04-09T10:59:50.443Z,8.68
2023-04-09T11:07:35.261Z,5.97
2023-04-09T11:10:01.804Z,6.30
2023-04-09T11:12:28.367Z,7.30
2023-04-09T11:14:54.979Z,7.97
2023-04-09T11:17:21.582Z,7.28
2023-04-09T11:19:48.558Z,4.72
2023-04-09T11:22:16.709Z,7.53
2023-04-09T11:24:44.209Z,6.75
2023-04-09T11:27:10.849Z,5.00
2023-04-09T11:29:37.423Z,6.15
2023-04-09T11:32:05.853Z,6.05
2023-04-09T11:34:32.528Z,7.20
2023-04-09T11:36:59.913Z,6.55
2023-04-09T11:39:26.515Z,6.60
2023-04-09T11:41:53.391Z,6.28
2023-04-09T11:44:21.947Z,5.80
2023-04-09T11:46:49.302Z,5.13
2023-04-09T11:49:16.621Z,5.40
2023-04-09T11:51:43.369Z,5.07
2023-04-09T11:54:13.360Z,6.93
2023-04-09T11:56:39.969Z,4.82
2023-04-09T11:59:06.696Z,7.15
2023-04-09T12:01:33.792Z,3.38
2023-04-09T12:04:01.454Z,4.60
2023-04-09T12:06:28.662Z,6.40
2023-04-09T12:08:57.557Z,5.35
2023-04-09T12:11:32.536Z,5.68
2023-04-09T12:14:01.269Z,4.85
2023-04-09T12:16:31.839Z,5.32
2023-04-09T12:19:14.109Z,5.38
2023-04-09T12:24:25.576Z,8.38
2023-04-09T12:26:52.281Z,6.40
2023-04-09T12:29:21.380Z,7.82
2023-04-09T12:31:48.314Z,6.95
2023-04-09T12:34:14.917Z,7.50
2023-04-09T12:36:41.807Z,6.60
2023-04-09T12:39:09.762Z,7.30
2023-04-09T12:41:36.546Z,7.43
2023-04-09T12:44:03.197Z,6.35
2023-04-09T12:46:29.829Z,7.47
2023-04-09T12:48:56.615Z,4.47
2023-04-09T12:51:23.797Z,5.20
2023-04-09T12:53:50.434Z,6.63
2023-04-09T12:56:17.097Z,7.03
2023-04-09T12:58:43.677Z,5.95
2023-04-09T13:01:10.322Z,6.72
2023-04-09T13:03:37.100Z,6.15
2023-04-09T13:06:04.191Z,4.57
2023-04-09T13:08:31.177Z,6.72
2023-04-09T13:10:57.699Z,3.97
2023-04-09T13:13:25.076Z,6.53
2023-04-09T13:15:52.193Z,5.45
2023-04-09T13:18:18.726Z,6.90
2023-04-09T13:20:45.300Z,5.38
2023-04-09T13:23:11.889Z,5.65
2023-04-09T13:25:38.522Z,6.38
2023-04-09T13:28:05.091Z,6.25
2023-04-09T13:30:32.017Z,5.50
2023-04-09T13:32:58.637Z,4.53
2023-04-09T13:35:25.304Z,4.65
2023-04-09T13:37:51.916Z,5.30
2023-04-09T13:40:18.523Z,5.60
2023-04-09T13:42:45.371Z,5.32
2023-04-09T13:45:11.910Z,4.38
2023-04-09T13:47:38.826Z,5.13
2023-04-09T13:50:06.381Z,4.40
2023-04-09T13:52:33.265Z,4.72
2023-04-09T13:54:59.814Z,5.63
2023-04-09T13:57:27.357Z,5.20
2023-04-09T13:59:53.904Z,4.70
2023-04-09T14:02:20.813Z,5.05
2023-04-09T14:04:47.587Z,5.22
2023-04-09T14:07:14.142Z,4.97
2023-04-09T14:09:40.642Z,4.68
2023-04-09T14:12:07.172Z,3.55
2023-04-09T14:14:33.782Z,4.50
2023-04-09T14:17:00.289Z,4.72
2023-04-09T14:19:26.790Z,6.20
2023-04-09T14:21:55.254Z,5.68
2023-04-09T14:24:23.157Z,6.20
2023-04-09T14:26:52.324Z,5.18
2023-04-09T14:29:19.584Z,5.88
2023-04-09T14:31:47.269Z,3.95
2023-04-09T14:34:14.134Z,7.35
2023-04-09T14:36:40.808Z,5.50
2023-04-09T14:39:07.383Z,5.47
2023-04-09T14:41:34.402Z,4.28
2023-04-09T14:44:01.078Z,5.93
2023-04-09T14:46:27.744Z,4.55
2023-04-09T14:48:54.821Z,5.47
2023-04-09T14:51:21.618Z,5.65
2023-04-09T14:53:48.599Z,4.32
2023-04-09T14:56:15.404Z,5.85
2023-04-09T14:58:41.938Z,7.07
2023-04-09T15:01:08.543Z,5.57
2023-04-09T15:03:35.495Z,5.10
2023-04-09T15:06:02.267Z,4.40
2023-04-09T15:08:28.859Z,5.57
2023-04-09T15:10:55.490Z,5.80
2023-04-09T15:13:22.042Z,6.10
2023-04-09T15:15:48.682Z,6.32
2023-04-09T15:18:15.514Z,5.53
2023-04-09T15:20:43.623Z,6.07
2023-04-09T15:23:11.077Z,6.55
2023-04-09T15:25:38.318Z,6.35
2023-04-09T15:28:05.987Z,4.28
2023-04-09T15:30:32.727Z,6.13
2023-04-09T15:32:59.296Z,5.22
2023-04-09T15:35:29.335Z,5.63
2023-04-09T15:37:57.037Z,6.28
2023-04-09T15:40:23.621Z,5.82
2023-04-09T15:42:50.211Z,6.53
2023-04-09T15:45:17.429Z,6.50
2023-04-09T15:47:45.042Z,6.78
2023-04-09T15:50:11.703Z,5.88
2023-04-09T15:52:38.286Z,6.30
2023-04-09T15:55:05.571Z,5.38
2023-04-09T15:57:32.325Z,6.35
2023-04-09T15:59:58.938Z,6.22
2023-04-09T16:02:26.218Z,5.82
2023-04-09T16:04:52.947Z,6.18
2023-04-09T16:07:19.694Z,6.15
2023-04-09T16:09:46.591Z,6.53
2023-04-09T16:12:13.402Z,7.88
2023-04-09T16:14:40.423Z,5.95
2023-04-09T16:17:07.096Z,7.53
2023-04-09T16:19:33.782Z,4.00
2023-04-09T16:22:00.657Z,6.32
2023-04-09T16:24:28.510Z,7.10
2023-04-09T16:26:55.157Z,5.68
2023-04-09T16:29:21.869Z,6.05
2023-04-09T16:31:48.531Z,5.60
2023-04-09T16:34:15.758Z,7.65
2023-04-09T16:36:42.539Z,5.20
2023-04-09T16:39:09.133Z,6.35
2023-04-09T16:41:37.048Z,6.82
2023-04-09T16:44:04.027Z,5.47
2023-04-09T16:46:30.863Z,3.25
2023-04-09T16:48:57.726Z,6.25
2023-04-09T16:51:24.287Z,6.50
2023-04-09T16:53:50.810Z,5.90
2023-04-09T16:56:17.350Z,6.25
2023-04-09T16:58:44.865Z,6.68
2023-04-09T17:01:11.622Z,5.53
2023-04-09T17:03:38.231Z,6.22
2023-04-09T17:06:05.094Z,5.68
2023-04-09T17:08:31.827Z,6.32
2023-04-09T17:11:02.505Z,4.30
2023-04-09T17:13:31.628Z,5.57
2023-04-09T17:15:58.339Z,5.90
2023-04-09T17:18:24.966Z,4.68
2023-04-09T17:20:52.116Z,6.00
2023-04-09T17:23:18.763Z,4.50
2023-04-09T17:25:46.151Z,4.57
2023-04-09T17:28:12.945Z,5.55
2023-04-09T17:30:39.849Z,5.95
2023-04-09T17:33:06.483Z,5.65
2023-04-09T17:35:33.208Z,5.55
2023-04-09T17:38:01.069Z,6.50
2023-04-09T17:40:28.235Z,5.95
2023-04-09T17:42:56.029Z,5.22
2023-04-09T17:45:22.710Z,5.80
2023-04-09T17:47:51.168Z,6.60
2023-04-09T17:50:17.950Z,4.95
2023-04-09T17:52:44.498Z,5.90
2023-04-09T17:55:12.468Z,5.72
2023-04-09T17:57:40.162Z,5.88
2023-04-09T18:00:07.621Z,5.50
2023-04-09T18:02:35.241Z,4.88
2023-04-09T18:05:04.814Z,6.07
2023-04-09T18:07:33.999Z,5.18
2023-04-09T18:10:02.149Z,5.78
2023-04-09T18:12:28.892Z,5.65
2023-04-09T18:14:55.582Z,5.68
2023-04-09T18:17:22.262Z,5.82
2023-04-09T18:19:49.230Z,5.50
2023-04-09T18:22:16.587Z,5.78
2023-04-09T18:24:43.217Z,5.15
2023-04-09T18:27:09.973Z,5.20
2023-04-09T18:29:36.716Z,5.15
2023-04-09T18:32:03.417Z,5.00
2023-04-09T18:34:29.999Z,5.15
2023-04-09T18:36:56.545Z,5.15
2023-04-09T18:39:23.114Z,5.55
2023-04-09T18:41:49.786Z,3.60
2023-04-09T18:44:16.622Z,4.88
2023-04-09T18:46:43.416Z,5.00
2023-04-09T18:49:10.108Z,5.60
2023-04-09T18:51:36.746Z,4.60
2023-04-09T18:54:03.518Z,5.75
2023-04-09T18:56:30.425Z,4.70
2023-04-09T18:58:56.970Z,5.57
2023-04-09T19:01:23.835Z,4.95
2023-04-09T19:03:50.658Z,5.88
2023-04-09T19:06:18.937Z,5.03
2023-04-09T19:08:47.527Z,4.72
2023-04-09T19:11:14.865Z,5.07
2023-04-09T19:13:41.579Z,5.57
2023-04-09T19:16:09.462Z,5.03
2023-04-09T19:18:37.382Z,4.82
2023-04-09T19:21:05.275Z,4.38
2023-04-09T19:23:34.088Z,3.78
2023-04-09T19:26:01.878Z,3.30
2023-04-09T19:28:28.693Z,5.10
2023-04-09T19:30:55.444Z,5.43
2023-04-09T19:33:23.458Z,5.32
2023-04-09T19:35:51.315Z,5.22
2023-04-09T19:38:19.007Z,4.50
2023-04-09T19:40:46.347Z,4.35
2023-04-09T19:43:13.365Z,4.03
2023-04-09T19:45:40.959Z,3.33
2023-04-09T19:48:07.702Z,4.15
2023-04-09T19:50:38.508Z,4.63
2023-04-09T19:53:06.111Z,3.03
2023-04-09T19:55:34.142Z,5.25
2023-04-09T19:58:01.512Z,4.60
2023-04-09T20:00:28.351Z,4.32
2023-04-09T20:02:55.929Z,4.85
2023-04-09T20:05:22.987Z,4.68
2023-04-09T20:07:50.646Z,4.20
2023-04-09T20:10:17.476Z,5.45
2023-04-09T20:12:47.517Z,5.28
2023-04-09T20:15:14.625Z,5.10
2023-04-09T20:17:41.958Z,4.70
2023-04-09T20:20:08.892Z,5.88
2023-04-09T20:22:35.606Z,5.20
2023-04-09T20:25:02.417Z,4.97
2023-04-09T20:27:29.037Z,6.00
2023-04-09T20:29:56.452Z,3.95
2023-04-09T20:32:23.100Z,4.70
2023-04-09T20:34:49.747Z,4.65
2023-04-09T20:37:16.327Z,4.50
2023-04-09T20:39:42.871Z,2.95
2023-04-09T20:42:09.455Z,4.38
2023-04-09T20:44:36.220Z,4.63
2023-04-09T20:47:02.799Z,5.28
2023-04-09T20:49:29.426Z,2.45
2023-04-09T20:51:56.828Z,4.35
2023-04-09T20:54:23.439Z,3.97
2023-04-09T20:56:50.336Z,2.30
2023-04-09T20:59:18.343Z,4.15
2023-04-09T21:01:45.165Z,2.63
2023-04-09T21:04:11.922Z,4.25
2023-04-09T21:06:38.568Z,4.70
2023-04-09T21:09:05.077Z,4.40
2023-04-09T21:11:31.723Z,3.65
2023-04-09T21:13:58.590Z,2.72
2023-04-09T21:16:27.248Z,3.55
2023-04-09T21:18:54.167Z,3.88
2023-04-09T21:21:21.426Z,1.80
2023-04-09T21:23:47.971Z,4.15
2023-04-09T21:26:15.150Z,6.00
2023-04-09T21:28:41.753Z,4.28
2023-04-09T21:31:11.163Z,4.28
2023-04-09T21:33:39.260Z,4.43
2023-04-09T21:36:07.917Z,2.25
2023-04-09T21:38:34.770Z,4.55
2023-04-09T21:41:01.847Z,3.53
2023-04-09T21:43:29.187Z,4.53
2023-04-09T21:45:57.151Z,5.03
2023-04-09T21:48:24.203Z,2.55
2023-04-09T21:50:50.919Z,4.22
2023-04-09T21:53:17.570Z,4.13
2023-04-09T21:55:44.185Z,4.38
2023-04-09T21:58:11.968Z,4.45
2023-04-09T22:00:38.576Z,3.75
2023-04-09T22:03:05.297Z,5.47
2023-04-09T22:05:34.390Z,4.15
2023-04-09T22:08:01.148Z,5.10
2023-04-09T22:10:28.121Z,3.65
2023-04-09T22:12:55.442Z,4.00
2023-04-09T22:15:22.061Z,4.78
2023-04-09T22:17:48.774Z,2.40
2023-04-09T22:20:15.517Z,4.25
2023-04-09T22:22:42.512Z,3.05
2023-04-09T22:25:11.166Z,2.13
2023-04-09T22:27:38.234Z,5.30
2023-04-09T22:30:05.812Z,3.38
2023-04-09T22:32:33.557Z,4.90
2023-04-09T22:35:00.292Z,4.35
2023-04-09T22:37:27.743Z,2.92
2023-04-09T22:39:54.351Z,4.10
2023-04-09T22:42:21.010Z,2.72
2023-04-09T22:44:47.577Z,5.05
2023-04-09T22:47:14.118Z,4.88
2023-04-09T22:49:40.680Z,4.72
2023-04-09T22:52:08.409Z,5.05
2023-04-09T22:54:34.988Z,4.88
2023-04-09T22:57:02.032Z,3.95
2023-04-09T22:59:37.298Z,2.95
2023-04-09T23:02:06.708Z,3.90
2023-04-09T23:04:34.863Z,5.63
2023-04-09T23:07:02.311Z,4.28
2023-04-09T23:09:30.324Z,4.10
2023-04-09T23:11:57.177Z,4.75
2023-04-09T23:14:23.772Z,4.63
2023-04-09T23:16:50.430Z,4.32
2023-04-09T23:19:17.094Z,4.10
2023-04-09T23:21:43.639Z,4.50
2023-04-09T23:24:10.446Z,5.40
2023-04-09T23:26:36.974Z,4.70
2023-04-09T23:29:03.564Z,5.15
2023-04-09T23:31:30.158Z,5.40
2023-04-09T23:33:56.690Z,4.95
2023-04-09T23:36:24.321Z,2.80
2023-04-09T23:38:51.256Z,5.18
2023-04-09T23:41:17.876Z,5.45
2023-04-09T23:43:44.427Z,3.08
2023-04-09T23:46:10.989Z,5.65
2023-04-09T23:48:37.578Z,4.63
2023-04-09T23:51:04.354Z,5.25
2023-04-09T23:53:30.879Z,3.70
2023-04-09T23:55:57.513Z,4.80
2023-04-09T23:58:24.213Z,4.88
